Latest Weather Observations for Ballarat

IDV60801

Issued at 5:02 pm EST Sunday 18 August 2019 (issued every 10 minutes, with the page automatically refreshed every 10 minutes)

About weather observations | Map of weather stations | Latest weather observations for VIC | Other Formats
Station Details ID: 089002 Name: BALLARAT AERODROME Lat: -37.51 Lon: 143.79 Height: 435.2 m
Data from the previous 72 hours. | See also: Recent months at Ballarat
Date/Time
EST
Temp
°C
App
Temp
°C
Dew
Point
°C
Rel
Hum
%
Delta-T
°C
Wind Press
QNH
hPa
Press
MSL
hPa
Rain since
9am
mm
Dir  Spd
km/h
Gust
km/h
Spd
kts
Gust
kts
18/05:00pm 7.6 -2.2 5.2 85 1.1 NNW 46 57 25 31 1004.2 1004.7 3.2
18/04:51pm 7.9 0.5 5.2 83 1.2 NNW 33 56 18 30 1004.4 1004.9 3.2
18/04:30pm 8.9 1.1 6.5 85 1.1 NNW 37 50 20 27 1004.0 1004.5 3.2
18/04:00pm 9.2 1.8 8.4 95 0.4 NNW 37 50 20 27 1003.9 1004.4 3.2
18/03:30pm 7.9 0.3 7.5 97 0.2 N 37 46 20 25 1003.4 1004.0 3.2
18/03:00pm 7.9 0.9 6.8 93 0.5 N 33 43 18 23 1003.4 1004.0 3.2
18/02:30pm 8.0 1.2 7.7 98 0.1 N 33 44 18 24 1004.0 1004.5 3.2
18/02:00pm 7.9 1.6 7.6 98 0.1 NNW 30 35 16 19 1004.5 1005.0 3.2
18/01:47pm 7.9 0.7 7.6 98 0.1 NNW 35 54 19 29 1004.6 1005.1 2.8
18/01:37pm 8.0 2.1 7.7 98 0.1 NNW 28 48 15 26 1004.8 1005.3 2.8
18/01:30pm 8.2 4.2 8.1 99 0.0 NNW 19 22 10 12 1004.9 1005.5 2.6
18/01:00pm 8.4 3.3 7.8 96 0.3 N 24 32 13 17 1004.9 1005.5 1.0
18/12:30pm 8.9 4.5 7.2 89 0.8 N 20 26 11 14 1005.3 1005.9 0.2
18/12:00pm 9.5 5.0 6.8 83 1.3 NNE 20 26 11 14 1005.8 1006.4 0.0
18/11:30am 9.4 3.9 6.1 80 1.6 N 24 32 13 17 1006.5 1007.0 0.0
18/11:00am 9.5 2.3 5.9 78 1.7 N 33 43 18 23 1006.8 1007.3 0.0
18/10:30am 9.4 2.7 5.8 78 1.7 N 30 35 16 19 1007.2 1007.8 0.0
18/10:00am 9.4 3.0 5.4 76 1.9 N 28 41 15 22 1006.9 1007.5 0.0
18/09:30am 9.7 3.4 5.9 77 1.8 N 28 35 15 19 1007.4 1008.0 0.0
18/09:00am 8.6 3.4 5.4 80 1.5 N 22 28 12 15 1007.2 1007.8 0.0
18/08:30am 7.8 2.9 4.9 82 1.3 N 20 24 11 13 1007.4 1008.0 0.0
18/08:00am 8.3 2.8 4.1 75 1.9 N 22 30 12 16 1007.6 1008.2 0.0
18/07:30am 8.3 2.4 3.9 74 2.0 NNE 24 30 13 16 1007.5 1008.1 0.0
18/07:00am 8.3 0.9 3.8 73 2.0 NNE 32 44 17 24 1007.5 1008.1 0.0
18/06:30am 8.5 0.8 3.4 70 2.2 NNE 33 46 18 25 1007.6 1008.2 0.0
18/06:00am 8.6 0.8 3.0 68 2.5 NNE 33 44 18 24 1008.4 1008.9 0.0
18/05:30am 9.0 0.9 3.0 66 2.6 NNE 35 50 19 27 1008.5 1009.0 0.0
18/05:00am 9.3 0.0 3.1 65 2.7 NNE 41 52 22 28 1008.6 1009.1 0.0
18/04:30am 9.2 0.7 3.2 66 2.6 NNE 37 46 20 25 1009.0 1009.6 0.0
18/04:00am 7.9 0.5 4.1 77 1.7 N 32 44 17 24 1010.1 1010.7 0.0
18/03:30am 8.0 0.5 4.2 77 1.7 NNE 33 43 18 23 1010.2 1010.8 0.0
18/03:00am 8.2 -0.5 4.0 75 1.9 NNE 39 50 21 27 1010.7 1011.4 0.0
18/02:30am 8.0 -0.3 4.2 77 1.7 NNE 37 48 20 26 1011.2 1011.8 0.0
18/02:00am 8.2 0.2 3.9 74 1.9 NNE 35 50 19 27 1011.8 1012.4 0.0
18/01:30am 8.0 1.1 4.6 79 1.5 NNE 30 41 16 22 1012.8 1013.5 0.0
18/01:00am 8.2 0.7 4.6 78 1.6 NNE 33 43 18 23 1012.8 1013.5 0.0
18/12:37am 8.4 1.9 4.8 78 1.6 NNE 28 46 15 25 1013.3 1013.9 0.0
18/12:30am 8.2 1.7 4.6 78 1.6 NNE 28 37 15 20 1013.4 1014.0 0.0
18/12:00am 8.1 1.1 4.3 77 1.7 NNE 30 43 16 23 1013.5 1014.1 0.0
 
Date/Time
EST
Temp
°C
App
Temp
°C
Dew
Point
°C
Rel
Hum
%
Delta-T
°C
Wind Press
QNH
hPa
Press
MSL
hPa
Rain since
9am
mm
Dir  Spd
km/h
Gust
km/h
Spd
kts
Gust
kts
17/11:30pm 7.5 1.1 5.1 85 1.1 NNE 28 39 15 21 1013.9 1014.5 0.0
17/11:00pm 6.9 1.6 5.1 88 0.8 N 22 30 12 16 1014.7 1015.4 0.0
17/10:30pm 7.1 -0.3 4.8 85 1.0 NNE 33 43 18 23 1014.0 1014.6 0.0
17/10:00pm 7.2 0.8 5.3 88 0.9 NNE 28 39 15 21 1014.6 1015.3 0.0
17/09:30pm 6.6 1.4 5.4 92 0.5 NNE 22 30 12 16 1015.4 1016.1 0.0
17/09:00pm 6.6 0.1 4.9 89 0.8 NNE 28 35 15 19 1015.3 1016.0 0.0
17/08:30pm 6.9 0.5 5.2 89 0.8 NNE 28 37 15 20 1015.5 1016.2 0.0
17/08:00pm 6.4 0.7 5.0 91 0.6 N 24 28 13 15 1016.0 1016.6 0.0
17/07:30pm 6.3 1.3 4.8 90 0.7 NNE 20 22 11 12 1016.1 1016.7 0.0
17/07:00pm 6.1 2.8 4.4 89 0.7 N 11 15 6 8 1016.2 1016.8 0.0
17/06:30pm 7.2 3.2 4.9 85 1.0 N 15 19 8 10 1016.3 1016.9 0.0
17/06:00pm 7.6 3.2 4.7 82 1.3 N 17 20 9 11 1016.0 1016.6 0.0
17/05:30pm 9.3 4.9 4.7 73 2.1 NNE 17 20 9 11 1015.5 1016.2 0.0
17/05:00pm 10.3 5.4 5.1 70 2.4 NNE 20 28 11 15 1015.5 1016.2 0.0
17/04:30pm 11.0 4.9 2.8 57 3.6 N 24 32 13 17 1016.2 1016.8 0.0
17/04:00pm 11.3 4.5 2.9 56 3.7 N 28 35 15 19 1016.5 1017.2 0.0
17/03:30pm 11.9 6.2 4.9 62 3.3 N 24 32 13 17 1016.7 1017.4 0.0
17/03:00pm 12.3 7.6 6.1 66 3.0 N 20 28 11 15 1016.6 1017.3 0.0
17/02:30pm 11.7 6.7 4.7 62 3.3 N 20 30 11 16 1016.8 1017.5 0.0
17/02:00pm 11.6 6.7 5.3 65 3.0 N 20 28 11 15 1017.1 1017.8 0.0
17/01:30pm 11.5 7.1 6.6 72 2.4 N 19 24 10 13 1017.5 1018.2 0.0
17/01:00pm 11.5 7.6 7.0 74 2.2 N 17 24 9 13 1018.0 1018.7 0.0
17/12:30pm 10.4 7.7 5.4 71 2.3 N 9 15 5 8 1018.6 1019.3 0.0
17/12:00pm 9.5 6.7 5.3 75 1.9 NNW 9 15 5 8 1019.4 1020.1 0.0
17/11:30am 9.0 5.9 5.6 79 1.6 NNE 11 19 6 10 1019.8 1020.5 0.0
17/11:00am 8.7 5.7 5.8 82 1.3 N 11 17 6 9 1020.2 1020.9 0.0
17/10:30am 7.9 5.2 5.7 86 1.0 N 9 13 5 7 1020.6 1021.3 0.0
17/10:00am 7.7 5.6 6.8 94 0.4 NNE 7 13 4 7 1020.7 1021.4 0.0
17/09:30am 6.8 6.1 6.8 100 0.0 CALM 0 6 0 3 1021.0 1021.7 0.0
17/09:00am 3.9 1.8 3.9 100 0.0 WNW 4 6 2 3 1021.1 1021.8 3.4
17/08:30am 2.5 -0.4 2.5 100 0.0 N 7 9 4 5 1021.1 1021.8 3.4
17/08:00am 1.5 -0.3 1.5 100 0.0 CALM 0 0 0 0 1020.7 1021.4 3.4
17/07:30am 1.0 -2.2 1.0 100 0.0 S 7 9 4 5 1020.6 1021.3 3.4
17/07:00am 0.9 -2.3 0.9 100 0.0 S 7 11 4 6 1020.1 1020.8 3.4
17/06:30am 1.7 -1.7 1.7 100 0.0 SSE 9 11 5 6 1019.9 1020.6 3.4
17/06:00am 0.9 -3.4 0.9 100 0.0 SSE 13 17 7 9 1019.5 1020.2 3.4
17/05:30am 2.4 -1.3 2.4 100 0.0 SSE 11 13 6 7 1019.6 1020.3 3.4
17/05:00am 2.6 -1.8 2.6 100 0.0 SSE 15 19 8 10 1019.5 1020.2 3.4
17/04:30am 2.2 -1.1 2.2 100 0.0 SSE 9 15 5 8 1019.8 1020.5 3.4
17/04:00am 3.2 0.0 3.2 100 0.0 SSE 9 13 5 7 1019.8 1020.5 3.4
17/03:55am 3.2 0.0 3.2 100 0.0 SSE 9 11 5 6 1019.8 1020.5 3.4
17/03:39am 3.1 0.3 3.1 100 0.0 SSE 7 13 4 7 1019.8 1020.5 3.4
17/03:30am 2.7 0.0 2.7 100 0.0 S 6 7 3 4 1019.9 1020.6 3.4
17/03:00am 2.3 -0.5 2.3 100 0.0 SSW 6 9 3 5 1020.1 1020.8 3.4
17/02:30am 1.9 -1.1 1.9 100 0.0 SW 7 11 4 6 1020.3 1021.0 3.4
17/02:00am 2.4 -0.5 2.4 100 0.0 SSW 7 11 4 6 1020.6 1021.3 3.4
17/01:30am 3.6 0.1 3.6 100 0.0 SSW 11 15 6 8 1020.3 1021.0 3.4
17/01:00am 3.7 0.2 3.7 100 0.0 S 11 11 6 6 1019.9 1020.6 3.4
17/12:30am 3.8 1.3 3.8 100 0.0 S 6 7 3 4 1020.0 1020.7 3.4
17/12:02am 3.8 0.4 3.8 100 0.0 S 11 13 6 7 1020.1 1020.8 3.0
17/12:01am 3.8 0.4 3.8 100 0.0 S 11 13 6 7 1020.1 1020.8 3.0
17/12:00am 3.8 0.4 3.8 100 0.0 S 11 13 6 7 1020.1 1020.8 3.0
 
Date/Time
EST
Temp
°C
App
Temp
°C
Dew
Point
°C
Rel
Hum
%
Delta-T
°C
Wind Press
QNH
hPa
Press
MSL
hPa
Rain since
9am
mm
Dir  Spd
km/h
Gust
km/h
Spd
kts
Gust
kts
16/11:35pm 3.5 -0.8 3.5 100 0.0 S 15 17 8 9 1019.9 1020.6 3.0
16/11:30pm 3.6 -0.6 3.6 100 0.0 S 15 17 8 9 1019.9 1020.6 3.0
16/11:00pm 4.7 1.8 4.7 100 0.0 S 9 13 5 7 1020.3 1021.0 3.0
16/10:39pm 3.5 0.9 3.4 99 0.0 SSW 6 7 3 4 1020.3 1021.0 3.0
16/10:30pm 3.7 2.3 3.6 99 0.0 CALM 0 6 0 3 1020.2 1020.9 3.0
16/10:00pm 4.0 1.0 3.9 99 0.0 SSE 9 11 5 6 1020.1 1020.8 3.0
16/09:48pm 4.6 0.9 4.5 99 0.0 S 13 17 7 9 1020.0 1020.7 3.0
16/09:30pm 5.5 2.4 5.4 99 0.0 SSW 11 17 6 9 1020.0 1020.7 3.0
16/09:00pm 5.7 2.2 5.6 99 0.0 SSW 13 17 7 9 1019.7 1020.4 3.0
16/08:30pm 5.5 2.4 5.4 99 0.0 SW 11 13 6 7 1019.5 1020.2 3.0
16/08:12pm 5.4 2.6 5.1 98 0.1 WSW 9 13 5 7 1019.4 1020.1 3.0
16/08:00pm 5.7 3.0 5.4 98 0.1 SW 9 13 5 7 1019.3 1020.0 3.0
16/07:49pm 5.8 3.1 5.5 98 0.1 SSW 9 15 5 8 1019.2 1019.9 3.0
16/07:30pm 6.2 3.2 5.9 98 0.1 SSW 11 15 6 8 1018.9 1019.6 3.0
16/07:09pm 6.5 3.2 6.2 98 0.1 SSW 13 17 7 9 1018.5 1019.2 3.0
16/07:00pm 6.4 3.4 6.0 97 0.2 SSW 11 15 6 8 1018.4 1019.0 3.0
16/06:30pm 6.9 3.5 6.0 94 0.4 SSW 13 19 7 10 1018.2 1018.8 3.0
16/06:00pm 7.0 3.5 5.6 91 0.6 SSW 13 22 7 12 1017.5 1018.2 3.0
16/05:30pm 7.7 3.2 6.2 90 0.7 SSW 19 28 10 15 1017.2 1017.9 3.0
16/05:00pm 8.7 4.3 6.5 86 1.0 SW 19 32 10 17 1016.6 1017.3 3.0
16/04:30pm 8.4 3.4 6.5 88 0.9 SW 22 35 12 19 1016.1 1016.7 3.0
16/04:00pm 9.1 5.2 8.8 98 0.1 SW 19 30 10 16 1015.7 1016.3 3.0
16/03:49pm 8.3 4.0 8.0 98 0.1 SW 20 32 11 17 1015.5 1016.2 3.0
16/03:39pm 8.1 3.8 7.8 98 0.1 SW 20 32 11 17 1015.4 1016.1 3.0
16/03:30pm 8.2 3.6 8.1 99 0.0 SW 22 35 12 19 1015.3 1016.0 3.0
16/03:29pm 8.3 3.7 8.2 99 0.0 SW 22 35 12 19 1015.3 1016.0 3.0
16/03:00pm 8.7 3.4 8.6 99 0.0 SW 26 39 14 21 1014.9 1015.6 3.0
16/02:30pm 8.9 5.0 8.8 99 0.0 SW 19 28 10 15 1014.4 1015.0 3.0
16/02:16pm 9.1 5.1 9.0 99 0.1 SW 20 30 11 16 1014.2 1014.8 3.0
16/02:06pm 9.1 5.3 9.1 100 0.0 SW 19 26 10 14 1014.1 1014.7 3.0
16/02:00pm 9.0 5.0 9.0 100 0.0 WSW 20 28 11 15 1014.1 1014.7 3.0
16/01:59pm 8.9 4.9 8.9 100 0.0 WSW 20 28 11 15 1014.1 1014.7 3.0
16/01:36pm 8.8 4.7 8.8 100 0.0 WSW 20 30 11 16 1013.9 1014.5 2.8
16/01:30pm 8.8 4.9 8.8 100 0.0 WSW 19 30 10 16 1013.8 1014.4 2.8
16/01:00pm 8.8 4.0 8.7 99 0.0 W 24 33 13 18 1013.9 1014.5 2.6
16/12:59pm 8.8 4.0 8.7 99 0.0 W 24 33 13 18 1013.9 1014.5 2.6
16/12:42pm 9.0 4.5 8.7 98 0.1 W 22 33 12 18 1013.8 1014.4 2.2
16/12:40pm 9.2 5.1 8.6 96 0.3 W 20 33 11 18 1013.8 1014.4 2.0
16/12:30pm 9.3 6.9 6.9 85 1.2 WNW 9 17 5 9 1013.8 1014.4 1.2
16/12:00pm 10.1 5.6 5.9 75 2.0 N 19 30 10 16 1013.6 1014.2 0.2
16/11:30am 11.2 4.5 5.5 68 2.7 N 30 35 16 19 1013.1 1013.8 0.2
16/11:00am 11.0 3.7 5.3 68 2.7 N 33 41 18 22 1012.7 1013.4 0.2
16/10:30am 10.1 2.7 4.0 66 2.8 N 32 43 17 23 1013.0 1013.7 0.0
16/10:00am 9.7 2.3 4.1 68 2.5 N 32 43 17 23 1013.0 1013.7 0.0
16/09:30am 8.0 0.4 3.1 71 2.1 N 32 39 17 21 1013.1 1013.8 0.0
16/09:00am 7.4 0.6 3.1 74 1.9 N 28 35 15 19 1013.5 1014.1 0.2
16/08:30am 7.0 -0.2 2.9 75 1.8 N 30 37 16 20 1013.5 1014.1 0.2
16/08:00am 7.1 0.2 2.6 73 1.9 N 28 35 15 19 1013.1 1013.8 0.2
16/07:30am 7.1 0.2 2.6 73 1.9 N 28 37 15 20 1013.3 1013.9 0.2
16/07:00am 7.3 0.0 2.6 72 2.0 N 30 39 16 21 1013.0 1013.7 0.2
16/06:30am 7.1 -1.5 2.8 74 1.8 NNE 37 46 20 25 1012.6 1013.3 0.2
16/06:00am 7.9 -0.8 1.7 65 2.6 NNE 37 46 20 25 1013.3 1013.9 0.0
16/05:30am 8.6 0.6 1.5 61 3.0 NNE 33 43 18 23 1013.1 1013.8 0.0
16/05:00am 8.7 0.9 1.4 60 3.1 NNE 32 39 17 21 1012.6 1013.3 0.0
16/04:30am 8.5 0.5 1.4 61 3.0 NNE 33 43 18 23 1013.4 1014.0 0.0
16/04:00am 8.5 0.1 1.4 61 3.0 NNE 35 44 19 24 1013.7 1014.3 0.0
16/03:30am 8.9 -0.3 1.3 59 3.2 NNE 39 50 21 27 1013.8 1014.4 0.0
16/03:00am 8.3 -0.1 1.7 63 2.8 N 35 44 19 24 1014.2 1014.8 0.0
16/02:30am 8.6 0.6 1.5 61 3.0 N 33 44 18 24 1015.1 1015.8 0.0
16/02:00am 8.8 0.5 1.9 62 2.9 N 35 48 19 26 1015.0 1015.7 0.0
16/01:30am 8.7 -0.7 2.1 63 2.8 N 41 54 22 29 1014.7 1015.4 0.0
16/01:09am 8.6 0.7 2.4 65 2.7 N 33 54 18 29 1015.1 1015.8 0.0
16/01:00am 7.9 0.7 2.8 70 2.2 N 30 41 16 22 1015.3 1016.0 0.0
16/12:30am 8.4 0.3 3.3 70 2.2 N 35 46 19 25 1015.4 1016.1 0.0
16/12:00am 8.6 1.1 3.4 70 2.3 N 32 39 17 21 1016.9 1017.6 0.0
 
Date/Time
EST
Temp
°C
App
Temp
°C
Dew
Point
°C
Rel
Hum
%
Delta-T
°C
Wind Press
QNH
hPa
Press
MSL
hPa
Rain since
9am
mm
Dir  Spd
km/h
Gust
km/h
Spd
kts
Gust
kts
15/11:30pm 9.0 1.4 3.8 70 2.3 N 33 44 18 24 1016.1 1016.7 0.0
15/11:00pm 8.3 1.6 3.9 74 2.0 N 28 33 15 18 1017.4 1018.1 0.0
15/10:30pm 8.9 2.2 3.9 71 2.2 N 28 37 15 20 1017.2 1017.9 0.0
15/10:00pm 9.9 2.4 3.6 65 2.8 N 32 43 17 23 1017.2 1017.9 0.0
15/09:30pm 10.7 4.4 4.0 63 3.1 N 26 41 14 22 1017.2 1017.9 0.0
15/09:00pm 11.0 3.7 4.5 64 3.0 N 32 43 17 23 1017.6 1018.3 0.0
15/08:30pm 11.1 3.2 4.3 63 3.1 NNE 35 46 19 25 1017.6 1018.3 0.0
15/08:00pm 10.7 4.7 5.5 70 2.4 N 26 33 14 18 1017.9 1018.6 0.0
15/07:30pm 10.9 5.4 5.9 71 2.4 N 24 32 13 17 1018.6 1019.3 0.0
15/07:00pm 10.5 4.7 6.3 75 2.0 N 26 32 14 17 1018.7 1019.4 0.0
15/06:30pm 10.8 4.3 6.6 75 2.0 NNE 30 37 16 20 1018.3 1018.9 0.0
15/06:00pm 10.8 4.3 6.6 75 2.0 NNE 30 35 16 19 1018.2 1018.8 0.0
15/05:30pm 10.7 4.3 6.8 77 1.9 NNE 30 39 16 21 1018.2 1018.8 0.0

Other formats

Comma delimited format used in spreadsheet applications
http://www.bom.gov.au/fwo/IDV60801/IDV60801.94852.axf

JavaScript Object Notation format (JSON) in row-major order
http://www.bom.gov.au/fwo/IDV60801/IDV60801.94852.json

Data quality

Most of these data are generated automatically and are frequently updated. Quality checks on data are not normally performed. It is possible for incorrect values to appear. Refer to information at About Latest Weather Observations and please check the disclaimer before using these data.